Time;durP1;ratioP1;P1;durP2;ratioP2;P2;SDS_P1;SDS_P2;PMS_P1;PMS_P2;Temp;Humidity;BMP_temperature;BMP_pressure;BME280_temperature;BME280_humidity;BME280_pressure;Samples;Min_cycle;Max_cycle;Signal;HPM_P1;HPM_P2
2022/07/23 00:00:44;;;;;;;2.70;1.33;;;;;22.10;101778.00;;;;5033978;28;20192;-75
2022/07/23 00:03:11;;;;;;;1.63;1.38;;;;;22.10;101781.00;;;;5031928;28;20196;-75
2022/07/23 00:05:39;;;;;;;2.70;1.50;;;;;22.10;101780.00;;;;5029573;28;20203;-75
2022/07/23 00:08:07;;;;;;;2.65;1.50;;;;;22.10;101777.00;;;;5040611;28;20200;-75
2022/07/23 00:10:35;;;;;;;1.85;1.52;;;;;22.00;101782.00;;;;5040124;28;20203;-75
2022/07/23 00:13:03;;;;;;;2.70;1.58;;;;;22.00;101787.00;;;;5033900;28;20208;-75
2022/07/23 00:15:30;;;;;;;2.30;1.35;;;;;22.00;101780.00;;;;5036351;28;20572;-75
2022/07/23 00:17:58;;;;;;;1.90;1.33;;;;;22.00;101786.00;;;;5035162;28;20207;-75
2022/07/23 00:20:25;;;;;;;2.92;1.60;;;;;21.90;101776.00;;;;5034359;28;20204;-75
2022/07/23 00:22:55;;;;;;;1.85;1.17;;;;;21.90;101783.00;;;;5031132;28;20196;-75
2022/07/23 00:25:23;;;;;;;3.80;1.42;;;;;21.90;101782.00;;;;5029587;28;20201;-75
2022/07/23 00:27:51;;;;;;;1.30;1.15;;;;;21.90;101779.00;;;;5033408;28;20242;-74
2022/07/23 00:30:19;;;;;;;2.97;1.55;;;;;21.90;101777.00;;;;5032679;28;20195;-75
2022/07/23 00:32:48;;;;;;;1.20;1.05;;;;;21.80;101767.00;;;;5032456;28;20262;-75
2022/07/23 00:35:15;;;;;;;2.03;1.17;;;;;21.80;101765.00;;;;5029744;28;20207;-75
2022/07/23 00:37:42;;;;;;;1.42;1.02;;;;;21.80;101767.00;;;;5029416;28;20188;-76
2022/07/23 00:40:11;;;;;;;1.90;1.15;;;;;21.80;101760.00;;;;5034400;28;23303;-76
2022/07/23 00:42:39;;;;;;;3.28;1.30;;;;;21.80;101763.00;;;;5032776;28;20207;-76
2022/07/23 00:45:09;;;;;;;1.40;1.27;;;;;21.70;101759.00;;;;5031036;28;20199;-76
2022/07/23 00:47:37;;;;;;;1.20;1.08;;;;;21.70;101762.00;;;;5028670;28;20227;-76
2022/07/23 00:50:06;;;;;;;1.55;1.15;;;;;21.70;101758.00;;;;5030787;28;20220;-76
2022/07/23 00:52:35;;;;;;;1.25;1.10;;;;;21.70;101771.00;;;;5032209;28;20212;-76
2022/07/23 00:55:04;;;;;;;1.08;0.95;;;;;21.70;101760.00;;;;5033794;28;20208;-76
2022/07/23 00:57:31;;;;;;;2.83;1.00;;;;;21.70;101762.00;;;;5030344;28;20228;-76
2022/07/23 00:59:58;;;;;;;1.48;0.80;;;;;21.70;101754.00;;;;5033479;28;20211;-76
2022/07/23 01:02:27;;;;;;;3.45;1.17;;;;;21.60;101755.00;;;;5030339;28;20196;-76
2022/07/23 01:04:55;;;;;;;1.15;0.80;;;;;21.60;101756.00;;;;5029750;28;20690;-76
2022/07/23 01:07:24;;;;;;;1.20;1.10;;;;;21.60;101746.00;;;;5034995;28;20223;-76
2022/07/23 01:09:52;;;;;;;1.27;1.08;;;;;21.60;101752.00;;;;5027715;28;20203;-76
2022/07/23 01:12:20;;;;;;;1.23;0.80;;;;;21.60;101745.00;;;;5031132;28;20199;-77
2022/07/23 01:14:55;;;;;;;4.25;0.90;;;;;21.50;101742.00;;;;5030846;28;20220;-76
2022/07/23 01:17:22;;;;;;;1.42;1.02;;;;;21.60;101750.00;;;;5029936;28;20218;-76
2022/07/23 01:19:51;;;;;;;2.88;0.90;;;;;21.50;101744.00;;;;5028601;28;20784;-76
2022/07/23 01:22:21;;;;;;;1.77;0.80;;;;;21.50;101743.00;;;;5029239;28;20204;-76
2022/07/23 01:24:50;;;;;;;1.25;0.98;;;;;21.50;101737.00;;;;5041586;28;20191;-76
2022/07/23 01:27:19;;;;;;;1.42;0.88;;;;;21.50;101745.00;;;;5029258;28;20227;-76
2022/07/23 01:29:46;;;;;;;1.92;0.90;;;;;21.50;101732.00;;;;5029534;28;20294;-77
2022/07/23 01:32:13;;;;;;;1.88;0.90;;;;;21.50;101728.00;;;;5045031;28;20191;-77
2022/07/23 01:34:42;;;;;;;1.38;0.90;;;;;21.40;101729.00;;;;5033490;28;20286;-77
2022/07/23 01:37:09;;;;;;;1.60;1.00;;;;;21.40;101726.00;;;;5031139;28;20196;-77
2022/07/23 01:39:40;;;;;;;1.88;1.10;;;;;21.40;101723.00;;;;5036220;28;20192;-76
2022/07/23 01:42:09;;;;;;;1.77;0.90;;;;;21.40;101727.00;;;;5034883;28;20192;-77
2022/07/23 01:44:36;;;;;;;3.55;1.10;;;;;21.40;101728.00;;;;5028148;28;20242;-77
2022/07/23 01:47:04;;;;;;;1.80;0.95;;;;;21.30;101742.00;;;;5042469;28;20331;-77
2022/07/23 01:49:31;;;;;;;1.42;0.88;;;;;21.30;101733.00;;;;5035613;28;20396;-76
2022/07/23 01:52:01;;;;;;;3.33;1.20;;;;;21.30;101741.00;;;;5029549;28;20658;-76
2022/07/23 01:54:30;;;;;;;1.30;1.20;;;;;21.30;101739.00;;;;5032229;28;20200;-77
2022/07/23 01:56:57;;;;;;;2.55;1.20;;;;;21.20;101738.00;;;;5031646;28;20278;-76
2022/07/23 01:59:26;;;;;;;1.50;1.35;;;;;21.20;101737.00;;;;5027600;28;20208;-76
2022/07/23 02:01:54;;;;;;;1.42;1.00;;;;;21.20;101732.00;;;;5026645;28;20200;-76
2022/07/23 02:04:21;;;;;;;1.40;1.10;;;;;21.20;101734.00;;;;5028054;28;20921;-76
2022/07/23 02:06:49;;;;;;;1.38;1.00;;;;;21.20;101732.00;;;;5033376;28;20255;-76
2022/07/23 02:09:17;;;;;;;1.63;1.05;;;;;21.20;101730.00;;;;5030315;28;20200;-76
2022/07/23 02:11:44;;;;;;;2.55;1.40;;;;;21.10;101732.00;;;;5038593;28;20206;-76
2022/07/23 02:14:11;;;;;;;2.78;1.10;;;;;21.10;101726.00;;;;5036369;28;20429;-76
2022/07/23 02:16:40;;;;;;;2.65;1.23;;;;;21.10;101715.00;;;;5039842;28;20207;-76
2022/07/23 02:19:08;;;;;;;1.75;1.25;;;;;21.10;101723.00;;;;5032964;28;20237;-76
2022/07/23 02:21:35;;;;;;;1.33;1.10;;;;;21.10;101723.00;;;;5027270;28;20581;-76
2022/07/23 02:24:02;;;;;;;1.95;1.20;;;;;21.10;101727.00;;;;5033166;28;20673;-76
2022/07/23 02:26:32;;;;;;;2.70;1.02;;;;;21.00;101728.00;;;;5030774;28;20678;-76
2022/07/23 02:28:59;;;;;;;0.85;0.85;;;;;21.00;101731.00;;;;5036515;28;20197;-76
2022/07/23 02:31:26;;;;;;;1.42;1.00;;;;;21.00;101727.00;;;;5034264;28;20338;-76
2022/07/23 02:33:55;;;;;;;1.52;1.38;;;;;21.00;101722.00;;;;5041988;28;20207;-76
2022/07/23 02:36:22;;;;;;;0.93;0.82;;;;;21.00;101732.00;;;;5030845;28;20290;-76
2022/07/23 02:38:50;;;;;;;2.20;1.20;;;;;20.90;101730.00;;;;5032940;28;20200;-76
2022/07/23 02:41:17;;;;;;;1.05;0.93;;;;;20.90;101729.00;;;;5029349;28;20196;-76
2022/07/23 02:43:44;;;;;;;1.20;1.10;;;;;20.90;101732.00;;;;5030177;28;20195;-76
2022/07/23 02:46:12;;;;;;;2.65;0.98;;;;;20.90;101733.00;;;;5029579;28;20670;-76
2022/07/23 02:48:39;;;;;;;1.27;1.17;;;;;20.90;101733.00;;;;5030736;28;20226;-76
2022/07/23 02:51:08;;;;;;;1.60;1.27;;;;;20.80;101739.00;;;;5028111;28;20195;-76
2022/07/23 02:53:35;;;;;;;1.50;1.40;;;;;20.80;101742.00;;;;5028620;28;20204;-76
2022/07/23 02:56:02;;;;;;;2.05;1.33;;;;;20.80;101740.00;;;;5026906;28;20206;-76
2022/07/23 02:58:30;;;;;;;3.40;1.55;;;;;20.80;101743.00;;;;5027074;28;20702;-76
2022/07/23 03:00:57;;;;;;;3.35;1.35;;;;;20.80;101742.00;;;;5033102;28;20207;-76
2022/07/23 03:03:24;;;;;;;1.30;1.20;;;;;20.80;101737.00;;;;5030186;28;20203;-76
2022/07/23 03:05:51;;;;;;;2.80;1.40;;;;;20.70;101740.00;;;;5030010;28;20200;-76
2022/07/23 03:08:21;;;;;;;1.30;1.10;;;;;20.70;101750.00;;;;5032708;28;20223;-76
2022/07/23 03:10:48;;;;;;;1.38;1.20;;;;;20.70;101751.00;;;;5029975;28;20207;-77
2022/07/23 03:13:16;;;;;;;1.90;1.65;;;;;20.70;101756.00;;;;5031185;28;20192;-76
2022/07/23 03:15:43;;;;;;;1.50;1.00;;;;;20.70;101751.00;;;;5029138;28;20222;-76
2022/07/23 03:18:10;;;;;;;2.83;1.20;;;;;20.70;101750.00;;;;5030267;28;20684;-76
2022/07/23 03:20:38;;;;;;;1.27;1.17;;;;;20.60;101751.00;;;;5034220;28;20208;-76
2022/07/23 03:23:05;;;;;;;1.95;1.08;;;;;20.60;101754.00;;;;5035773;28;20191;-76
2022/07/23 03:25:34;;;;;;;1.70;1.00;;;;;20.60;101753.00;;;;5034288;28;20196;-76
2022/07/23 03:28:01;;;;;;;1.20;0.80;;;;;20.60;101758.00;;;;5030604;28;20234;-77
2022/07/23 03:30:28;;;;;;;1.63;1.27;;;;;20.50;101757.00;;;;5031056;28;20207;-77
2022/07/23 03:32:57;;;;;;;1.70;1.10;;;;;20.50;101766.00;;;;5033495;28;20205;-74
2022/07/23 03:35:24;;;;;;;1.23;1.10;;;;;20.50;101768.00;;;;5030836;28;20196;-74
2022/07/23 03:37:51;;;;;;;1.30;1.17;;;;;20.50;101770.00;;;;5042892;28;20199;-74
2022/07/23 03:40:19;;;;;;;1.58;1.40;;;;;20.50;101773.00;;;;5031780;28;20207;-75
2022/07/23 03:42:48;;;;;;;1.73;1.10;;;;;20.40;101766.00;;;;5033341;28;20200;-74
2022/07/23 03:45:15;;;;;;;1.60;1.40;;;;;20.40;101766.00;;;;5037081;28;20196;-75
2022/07/23 03:47:43;;;;;;;1.90;0.90;;;;;20.40;101764.00;;;;5033709;28;20224;-75
2022/07/23 03:50:11;;;;;;;1.92;0.93;;;;;20.30;101759.00;;;;5035198;28;20627;-76
2022/07/23 03:52:38;;;;;;;1.70;1.00;;;;;20.30;101760.00;;;;5033227;28;20193;-75
2022/07/23 03:55:06;;;;;;;0.95;0.85;;;;;20.30;101759.00;;;;5032879;28;20196;-75
2022/07/23 03:57:34;;;;;;;1.00;0.90;;;;;20.30;101758.00;;;;5034750;28;20227;-75
2022/07/23 04:00:03;;;;;;;1.02;0.93;;;;;20.20;101751.00;;;;5032599;28;20219;-76
2022/07/23 04:02:31;;;;;;;1.08;0.93;;;;;20.20;101747.00;;;;5035062;28;20200;-76
2022/07/23 04:04:59;;;;;;;1.75;1.10;;;;;20.20;101747.00;;;;5031861;28;20589;-75
2022/07/23 04:07:26;;;;;;;0.93;0.82;;;;;20.20;101736.00;;;;5034924;28;20219;-76
2022/07/23 04:09:54;;;;;;;1.50;1.08;;;;;20.20;101741.00;;;;5034987;28;20199;-75
2022/07/23 04:12:21;;;;;;;1.10;1.00;;;;;20.20;101739.00;;;;5033166;28;20199;-76
2022/07/23 04:14:48;;;;;;;1.23;1.00;;;;;20.20;101741.00;;;;5032351;28;20196;-75
2022/07/23 04:17:17;;;;;;;1.23;1.00;;;;;20.10;101740.00;;;;5033087;28;20200;-75
2022/07/23 04:19:45;;;;;;;1.23;1.02;;;;;20.10;101749.00;;;;5034747;28;20204;-75
2022/07/23 04:22:12;;;;;;;1.35;1.17;;;;;20.10;101748.00;;;;5033095;28;20207;-75
2022/07/23 04:24:40;;;;;;;2.30;1.50;;;;;20.10;101746.00;;;;5033554;28;20967;-76
2022/07/23 04:27:07;;;;;;;1.42;1.02;;;;;20.10;101746.00;;;;5034773;28;20208;-75
2022/07/23 04:29:35;;;;;;;2.20;1.13;;;;;20.10;101754.00;;;;5031367;28;20962;-76
2022/07/23 04:32:02;;;;;;;1.27;1.02;;;;;20.10;101751.00;;;;5030718;28;20199;-75
2022/07/23 04:34:31;;;;;;;3.70;1.17;;;;;20.10;101757.00;;;;5030917;28;20196;-75
2022/07/23 04:36:58;;;;;;;4.82;0.98;;;;;20.10;101747.00;;;;5034440;28;20195;-75
2022/07/23 04:39:25;;;;;;;1.08;1.00;;;;;20.10;101749.00;;;;5033638;28;20204;-75
2022/07/23 04:41:53;;;;;;;0.88;0.85;;;;;20.10;101746.00;;;;5028782;28;20208;-75
2022/07/23 04:44:20;;;;;;;1.00;0.93;;;;;20.10;101756.00;;;;5034583;28;20196;-75
2022/07/23 04:46:47;;;;;;;1.63;1.20;;;;;20.20;101753.00;;;;5032450;28;20200;-76
2022/07/23 04:49:14;;;;;;;2.05;1.20;;;;;20.20;101754.00;;;;5029740;28;20224;-75
2022/07/23 04:51:43;;;;;;;2.05;1.05;;;;;20.20;101763.00;;;;5034408;28;20196;-75
2022/07/23 04:54:10;;;;;;;1.27;1.05;;;;;20.20;101759.00;;;;5036063;28;20223;-76
2022/07/23 04:56:37;;;;;;;1.00;0.90;;;;;20.20;101766.00;;;;5034636;28;20193;-75
2022/07/23 04:59:05;;;;;;;1.75;1.02;;;;;20.30;101767.00;;;;5032405;28;20211;-75
2022/07/23 05:01:32;;;;;;;1.65;1.10;;;;;20.30;101769.00;;;;5030381;28;20204;-75
2022/07/23 05:03:59;;;;;;;1.95;1.20;;;;;20.30;101767.00;;;;5032789;28;20196;-75
2022/07/23 05:06:27;;;;;;;1.85;1.25;;;;;20.30;101765.00;;;;5031034;28;20300;-75
2022/07/23 05:08:56;;;;;;;3.53;1.70;;;;;20.40;101770.00;;;;5028410;28;20232;-75
2022/07/23 05:11:23;;;;;;;2.10;1.35;;;;;20.40;101763.00;;;;5034114;28;20211;-76
2022/07/23 05:13:51;;;;;;;1.67;1.17;;;;;20.50;101771.00;;;;5029374;28;20200;-76
2022/07/23 05:16:18;;;;;;;1.75;1.33;;;;;20.50;101779.00;;;;5029097;28;20205;-76
2022/07/23 05:18:46;;;;;;;2.35;1.52;;;;;20.60;101775.00;;;;5027337;28;20195;-76
2022/07/23 05:21:13;;;;;;;2.05;1.85;;;;;20.60;101776.00;;;;5031287;28;20204;-76
2022/07/23 05:23:40;;;;;;;2.15;1.60;;;;;20.70;101781.00;;;;5027815;28;20192;-76
2022/07/23 05:26:09;;;;;;;7.80;1.80;;;;;20.70;101784.00;;;;5028758;28;20192;-76
2022/07/23 05:28:36;;;;;;;2.65;2.17;;;;;20.80;101784.00;;;;5032811;28;20220;-76
2022/07/23 05:31:04;;;;;;;3.15;2.10;;;;;20.80;101788.00;;;;5030214;28;20204;-77
2022/07/23 05:33:31;;;;;;;2.22;2.03;;;;;20.90;101786.00;;;;5032951;28;20188;-76
2022/07/23 05:36:02;;;;;;;3.38;1.92;;;;;20.90;101782.00;;;;5032075;28;20191;-76
2022/07/23 05:38:30;;;;;;;3.78;1.90;;;;;21.00;101792.00;;;;5034369;28;20682;-77
2022/07/23 05:40:57;;;;;;;3.55;2.28;;;;;21.10;101790.00;;;;5029567;28;20200;-77
2022/07/23 05:43:26;;;;;;;3.08;2.13;;;;;21.10;101794.00;;;;5030895;28;20211;-77
2022/07/23 05:45:54;;;;;;;3.80;2.08;;;;;21.20;101798.00;;;;5028298;28;20206;-76
2022/07/23 05:48:21;;;;;;;2.97;2.10;;;;;21.30;101800.00;;;;5028926;28;20312;-76
2022/07/23 05:50:48;;;;;;;4.18;2.08;;;;;21.40;101804.00;;;;5028213;28;20223;-76
2022/07/23 05:53:16;;;;;;;2.97;2.38;;;;;21.50;101809.00;;;;5031229;28;20574;-76
2022/07/23 05:55:43;;;;;;;1.92;1.73;;;;;21.60;101807.00;;;;5027665;28;20207;-77
2022/07/23 05:58:10;;;;;;;4.13;2.10;;;;;21.60;101818.00;;;;5028568;28;20228;-76
2022/07/23 06:00:39;;;;;;;2.10;1.75;;;;;21.70;101813.00;;;;5029580;28;20204;-76
2022/07/23 06:03:06;;;;;;;2.47;1.67;;;;;21.80;101816.00;;;;5032135;28;20215;-76
2022/07/23 06:05:34;;;;;;;2.33;1.83;;;;;21.90;101807.00;;;;5036324;28;20200;-77
2022/07/23 06:08:01;;;;;;;2.45;1.50;;;;;22.00;101811.00;;;;5028118;28;20231;-76
2022/07/23 06:10:30;;;;;;;2.78;1.70;;;;;22.00;101812.00;;;;5026450;28;20598;-76
2022/07/23 06:12:57;;;;;;;2.30;1.65;;;;;22.10;101818.00;;;;5029336;28;20219;-76
2022/07/23 06:15:24;;;;;;;1.40;1.20;;;;;22.20;101818.00;;;;5027007;28;20207;-76
2022/07/23 06:17:53;;;;;;;1.77;1.40;;;;;22.30;101813.00;;;;5029714;28;20196;-76
2022/07/23 06:20:20;;;;;;;1.25;1.15;;;;;22.40;101812.00;;;;5029137;28;20215;-76
2022/07/23 06:22:47;;;;;;;1.50;1.17;;;;;22.50;101819.00;;;;5026440;28;20204;-76
2022/07/23 06:25:16;;;;;;;3.30;0.98;;;;;22.50;101811.00;;;;5027124;28;20204;-77
2022/07/23 06:27:43;;;;;;;1.70;0.80;;;;;22.60;101815.00;;;;5026566;28;20196;-77
2022/07/23 06:30:12;;;;;;;4.15;1.00;;;;;22.70;101811.00;;;;5049591;28;20198;-77
2022/07/23 06:32:40;;;;;;;1.30;1.17;;;;;22.80;101822.00;;;;5036476;28;20212;-77
2022/07/23 06:35:09;;;;;;;1.85;1.30;;;;;22.90;101823.00;;;;5032089;28;20204;-77
2022/07/23 06:37:36;;;;;;;3.03;1.10;;;;;23.00;101821.00;;;;5030961;28;20192;-75
2022/07/23 06:40:04;;;;;;;1.95;1.35;;;;;23.10;101816.00;;;;5030251;28;20731;-76
2022/07/23 06:42:31;;;;;;;2.22;0.80;;;;;23.10;101809.00;;;;5037295;28;20565;-76
2022/07/23 06:44:59;;;;;;;1.13;0.90;;;;;23.20;101810.00;;;;5029773;28;20202;-75
2022/07/23 06:47:26;;;;;;;1.75;0.55;;;;;23.30;101816.00;;;;5045733;28;20203;-76
2022/07/23 06:49:53;;;;;;;1.85;1.10;;;;;23.40;101814.00;;;;5027872;28;20235;-76
2022/07/23 06:52:22;;;;;;;3.35;1.05;;;;;23.50;101813.00;;;;5029334;28;21055;-76
2022/07/23 06:54:50;;;;;;;1.27;1.00;;;;;23.50;101822.00;;;;5031619;28;20222;-76
2022/07/23 06:57:17;;;;;;;1.63;0.80;;;;;23.60;101819.00;;;;5032543;28;20728;-76
2022/07/23 06:59:44;;;;;;;2.90;1.20;;;;;23.70;101825.00;;;;5034627;28;20204;-77
2022/07/23 07:02:12;;;;;;;2.95;0.85;;;;;23.80;101829.00;;;;5035923;28;20200;-78
2022/07/23 07:04:39;;;;;;;4.45;1.08;;;;;23.90;101831.00;;;;5037539;28;20204;-76
2022/07/23 07:07:06;;;;;;;2.53;0.60;;;;;24.00;101829.00;;;;5037368;28;20689;-76
2022/07/23 07:09:35;;;;;;;1.15;0.80;;;;;24.00;101832.00;;;;5034760;28;20224;-76
2022/07/23 07:12:03;;;;;;;1.63;0.90;;;;;24.10;101827.00;;;;5032794;28;20192;-76
2022/07/23 07:14:30;;;;;;;4.20;0.90;;;;;24.20;101828.00;;;;5035625;28;20199;-76
2022/07/23 07:16:57;;;;;;;2.28;0.73;;;;;24.30;101832.00;;;;5037634;28;20203;-76
2022/07/23 07:19:25;;;;;;;1.30;1.00;;;;;24.40;101834.00;;;;5036314;28;20198;-75
2022/07/23 07:21:52;;;;;;;3.72;1.20;;;;;24.50;101837.00;;;;5036169;28;20575;-74
2022/07/23 07:24:19;;;;;;;1.33;0.82;;;;;24.60;101831.00;;;;5046825;28;20200;-74
2022/07/23 07:26:48;;;;;;;1.73;0.90;;;;;24.70;101830.00;;;;5043212;28;20184;-74
2022/07/23 07:29:15;;;;;;;0.85;0.73;;;;;24.70;101840.00;;;;5031395;28;20220;-76
2022/07/23 07:31:43;;;;;;;2.08;1.05;;;;;24.80;101848.00;;;;5032938;28;20196;-75
2022/07/23 07:34:10;;;;;;;1.13;0.60;;;;;24.90;101851.00;;;;5037281;28;20195;-76
2022/07/23 07:36:37;;;;;;;1.88;0.75;;;;;25.00;101857.00;;;;5039264;28;20195;-77
2022/07/23 07:39:06;;;;;;;1.30;0.90;;;;;25.10;101854.00;;;;5051234;28;20273;-78
2022/07/23 07:41:33;;;;;;;1.55;0.93;;;;;25.20;101854.00;;;;5032433;28;20659;-78
2022/07/23 07:44:02;;;;;;;1.00;0.82;;;;;25.30;101863.00;;;;5040614;28;20200;-77
2022/07/23 07:46:30;;;;;;;1.88;0.90;;;;;25.30;101860.00;;;;5033800;28;20909;-77
2022/07/23 07:48:57;;;;;;;1.40;0.80;;;;;25.40;101857.00;;;;5038779;28;20255;-77
2022/07/23 07:51:25;;;;;;;1.35;0.90;;;;;25.40;101857.00;;;;5031291;28;20204;-77
2022/07/23 07:53:52;;;;;;;1.30;0.70;;;;;25.50;101855.00;;;;5035206;28;20204;-77
2022/07/23 07:56:19;;;;;;;1.15;0.98;;;;;25.60;101855.00;;;;5039016;28;20208;-76
2022/07/23 07:58:47;;;;;;;1.38;0.88;;;;;25.70;101859.00;;;;5031200;28;20231;-76
2022/07/23 08:01:16;;;;;;;0.98;0.80;;;;;25.80;101850.00;;;;5038853;28;20207;-74
2022/07/23 08:03:46;;;;;;;2.13;0.57;;;;;25.80;101861.00;;;;5041713;28;20196;-76
2022/07/23 08:06:13;;;;;;;1.02;0.82;;;;;26.00;101861.00;;;;5043390;28;20207;-75
2022/07/23 08:08:40;;;;;;;1.52;0.95;;;;;26.00;101875.00;;;;5052208;28;20226;-78
2022/07/23 08:11:08;;;;;;;1.20;1.05;;;;;26.10;101876.00;;;;5055869;28;20203;-77
2022/07/23 08:13:35;;;;;;;1.35;0.70;;;;;26.20;101864.00;;;;5045279;28;20207;-76
2022/07/23 08:16:02;;;;;;;5.65;0.90;;;;;26.20;101872.00;;;;5059780;28;20200;-76
2022/07/23 08:18:31;;;;;;;1.02;0.63;;;;;26.30;101872.00;;;;5044405;28;20196;-76
2022/07/23 08:20:58;;;;;;;2.13;1.13;;;;;26.40;101879.00;;;;5038497;28;20214;-76
2022/07/23 08:23:27;;;;;;;1.55;0.80;;;;;26.50;101879.00;;;;5045616;28;20211;-76
2022/07/23 08:25:56;;;;;;;0.80;0.75;;;;;26.60;101879.00;;;;5049290;28;20238;-76
2022/07/23 08:28:23;;;;;;;1.63;0.75;;;;;26.60;101879.00;;;;5035607;28;20672;-76
2022/07/23 08:30:51;;;;;;;2.50;1.58;;;;;26.80;101882.00;;;;5036859;28;20678;-76
2022/07/23 08:33:19;;;;;;;8.52;7.47;;;;;26.80;101873.00;;;;5029751;28;20192;-76
2022/07/23 08:35:50;;;;;;;5.22;3.75;;;;;26.90;101877.00;;;;5040317;28;20666;-77
2022/07/23 08:38:19;;;;;;;2.65;1.83;;;;;27.10;101872.00;;;;5033988;28;20258;-75
2022/07/23 08:40:48;;;;;;;2.58;2.33;;;;;27.20;101876.00;;;;5037409;28;20195;-76
2022/07/23 08:43:17;;;;;;;2.25;1.77;;;;;27.30;101876.00;;;;5030371;28;20197;-77
2022/07/23 08:45:47;;;;;;;2.65;1.00;;;;;27.40;101873.00;;;;5029441;28;20651;-77
2022/07/23 08:48:17;;;;;;;1.02;0.85;;;;;27.40;101874.00;;;;5028659;28;20283;-77
2022/07/23 08:50:47;;;;;;;1.52;0.60;;;;;27.60;101874.00;;;;5029206;28;20224;-76
2022/07/23 08:53:15;;;;;;;1.13;0.98;;;;;27.70;101887.00;;;;5030023;28;20204;-76
2022/07/23 08:55:46;;;;;;;1.48;0.90;;;;;27.80;101891.00;;;;5029210;28;20192;-77
2022/07/23 08:58:13;;;;;;;1.30;1.00;;;;;27.90;101890.00;;;;5028055;28;20310;-76
2022/07/23 09:00:41;;;;;;;0.88;0.60;;;;;28.00;101883.00;;;;5028513;28;21069;-78
2022/07/23 09:03:15;;;;;;;1.85;0.82;;;;;28.10;101885.00;;;;5028175;28;20200;-77
2022/07/23 09:05:42;;;;;;;1.10;0.75;;;;;28.20;101883.00;;;;5027966;28;20192;-77
2022/07/23 09:08:13;;;;;;;1.35;0.90;;;;;28.20;101885.00;;;;5028122;28;20668;-76
2022/07/23 09:10:52;;;;;;;1.00;0.80;;;;;28.30;101888.00;;;;5028679;28;21029;-77
2022/07/23 09:13:26;;;;;;;1.15;0.60;;;;;28.40;101881.00;;;;5038146;28;20199;-77
2022/07/23 09:15:55;;;;;;;0.85;0.70;;;;;28.50;101884.00;;;;5044268;28;20211;-76
2022/07/23 09:18:30;;;;;;;1.30;0.63;;;;;28.50;101889.00;;;;5030552;28;20207;-78
2022/07/23 09:21:11;;;;;;;1.50;1.00;;;;;28.60;101887.00;;;;5034634;28;20212;-75
2022/07/23 09:23:41;;;;;;;1.05;0.70;;;;;28.70;101875.00;;;;5028970;28;20196;-76
2022/07/23 09:26:20;;;;;;;2.97;1.02;;;;;28.80;101882.00;;;;5029077;28;20250;-76
2022/07/23 09:28:53;;;;;;;1.20;0.73;;;;;28.90;101888.00;;;;5036177;28;20206;-76
2022/07/23 09:31:21;;;;;;;1.38;0.80;;;;;29.00;101891.00;;;;5036027;28;20207;-77
2022/07/23 09:33:48;;;;;;;1.08;0.77;;;;;29.20;101888.00;;;;5033711;28;20578;-76
2022/07/23 09:36:16;;;;;;;2.75;0.98;;;;;29.30;101898.00;;;;5038974;28;20681;-76
2022/07/23 09:38:52;;;;;;;1.15;1.05;;;;;29.30;101891.00;;;;5034912;28;20196;-76
2022/07/23 09:41:19;;;;;;;0.73;0.60;;;;;29.50;101893.00;;;;5029996;28;20216;-76
2022/07/23 09:43:46;;;;;;;1.73;0.85;;;;;29.60;101889.00;;;;5044587;28;20215;-75
2022/07/23 09:46:25;;;;;;;0.70;0.50;;;;;29.60;101889.00;;;;5030760;28;20197;-76
2022/07/23 09:48:53;;;;;;;1.30;0.70;;;;;29.80;101892.00;;;;5028427;28;20191;-75
2022/07/23 09:51:25;;;;;;;3.35;0.90;;;;;29.90;101895.00;;;;5033978;28;20208;-75
2022/07/23 09:53:54;;;;;;;2.83;0.70;;;;;30.00;101895.00;;;;5029617;28;20298;-75
2022/07/23 09:56:22;;;;;;;1.25;1.15;;;;;30.10;101888.00;;;;5044097;28;20197;-76
2022/07/23 09:58:52;;;;;;;0.85;0.75;;;;;30.10;101899.00;;;;5031285;28;20299;-75
2022/07/23 10:01:21;;;;;;;1.13;0.80;;;;;30.20;101891.00;;;;5032332;28;20231;-75
2022/07/23 10:03:48;;;;;;;1.55;0.70;;;;;30.20;101891.00;;;;5031035;28;20196;-75
2022/07/23 10:06:16;;;;;;;0.57;0.57;;;;;30.30;101898.00;;;;5033617;28;20663;-75
2022/07/23 10:08:48;;;;;;;1.40;0.90;;;;;30.30;101902.00;;;;5028729;28;20192;-74
2022/07/23 10:11:17;;;;;;;1.85;0.90;;;;;30.40;101899.00;;;;5028241;28;20220;-75
2022/07/23 10:13:52;;;;;;;4.88;0.98;;;;;30.40;101889.00;;;;5031507;28;20557;-74
2022/07/23 10:16:20;;;;;;;1.23;0.98;;;;;30.40;101887.00;;;;5029349;28;20202;-74
2022/07/23 10:18:48;;;;;;;3.25;0.88;;;;;30.50;101884.00;;;;5027758;28;20196;-75
2022/07/23 10:21:24;;;;;;;0.90;0.60;;;;;30.40;101880.00;;;;5031435;28;20658;-75
2022/07/23 10:24:06;;;;;;;0.90;0.85;;;;;30.40;101881.00;;;;5030056;28;20210;-75
2022/07/23 10:26:42;;;;;;;0.82;0.70;;;;;30.50;101883.00;;;;5028068;28;20199;-75
2022/07/23 10:29:19;;;;;;;1.98;0.80;;;;;30.50;101881.00;;;;5027218;28;20574;-75
2022/07/23 10:31:57;;;;;;;2.05;0.80;;;;;30.60;101889.00;;;;5030977;28;20203;-75
2022/07/23 10:34:32;;;;;;;2.90;0.80;;;;;30.60;101879.00;;;;5027899;28;20203;-75
2022/07/23 10:37:06;;;;;;;1.33;0.63;;;;;30.70;101889.00;;;;5028357;28;20200;-75
2022/07/23 10:39:36;;;;;;;1.98;0.93;;;;;30.70;101881.00;;;;5040903;28;20203;-75
2022/07/23 10:42:13;;;;;;;1.63;0.80;;;;;30.70;101879.00;;;;5027062;28;20223;-75
2022/07/23 10:44:42;;;;;;;1.92;0.80;;;;;30.80;101879.00;;;;5028796;28;20202;-75
2022/07/23 10:50:15;;;;;;;0.98;0.77;;;;;30.80;101893.00;;;;5029739;28;20239;-74
2022/07/23 10:53:12;;;;;;;1.95;0.70;;;;;30.60;101882.00;;;;5039357;28;20206;-75
2022/07/23 10:55:45;;;;;;;1.85;0.60;;;;;30.70;101886.00;;;;5034414;28;20199;-75
2022/07/23 10:58:20;;;;;;;0.80;0.73;;;;;30.80;101885.00;;;;5032423;28;20718;-75
2022/07/23 11:00:48;;;;;;;1.38;0.80;;;;;30.90;101879.00;;;;5034801;28;20195;-75
2022/07/23 11:03:56;;;;;;;1.50;0.52;;;;;30.80;101883.00;;;;5034000;28;20203;-75
2022/07/23 11:06:23;;;;;;;1.40;0.70;;;;;31.00;101884.00;;;;5003105;28;20200;-75
2022/07/23 11:09:25;;;;;;;1.38;0.77;;;;;30.90;101885.00;;;;5034657;28;20199;-75
2022/07/23 11:12:33;;;;;;;3.53;0.80;;;;;30.90;101873.00;;;;5032480;28;20328;-75
2022/07/23 11:15:01;;;;;;;0.57;0.57;;;;;31.10;101875.00;;;;5029017;28;20722;-75
2022/07/23 11:17:29;;;;;;;0.77;0.68;;;;;31.10;101879.00;;;;5039040;28;20206;-75
2022/07/23 11:20:20;;;;;;;1.15;0.70;;;;;31.10;101882.00;;;;5034280;28;20215;-75
2022/07/23 11:22:52;;;;;;;0.70;0.60;;;;;31.20;101888.00;;;;5033723;28;20192;-75
2022/07/23 11:25:39;;;;;;;0.90;0.70;;;;;31.10;101884.00;;;;5041717;28;20255;-75
2022/07/23 11:28:12;;;;;;;1.00;0.75;;;;;31.20;101878.00;;;;5027066;28;20658;-75
2022/07/23 11:30:42;;;;;;;1.00;0.90;;;;;31.20;101871.00;;;;5027311;28;20220;-75
2022/07/23 11:33:22;;;;;;;1.75;0.70;;;;;31.10;101875.00;;;;5027094;28;20196;-75
2022/07/23 11:36:02;;;;;;;1.10;0.70;;;;;31.10;101880.00;;;;5026268;28;20200;-75
2022/07/23 11:38:32;;;;;;;1.42;0.82;;;;;31.10;101886.00;;;;5026668;28;20214;-75
2022/07/23 11:41:01;;;;;;;0.95;0.80;;;;;31.10;101891.00;;;;5035942;28;20436;-75
2022/07/23 11:43:28;;;;;;;1.02;0.80;;;;;31.10;101887.00;;;;5041267;28;20196;-75
2022/07/23 11:45:59;;;;;;;1.08;0.68;;;;;31.00;101882.00;;;;5037077;28;20200;-74
2022/07/23 11:48:28;;;;;;;0.80;0.80;;;;;31.00;101879.00;;;;5042738;28;20208;-75
2022/07/23 11:50:58;;;;;;;1.05;0.80;;;;;31.00;101878.00;;;;5030858;28;20232;-76
2022/07/23 11:53:27;;;;;;;1.33;0.85;;;;;31.00;101887.00;;;;5036729;28;20247;-75
2022/07/23 11:55:55;;;;;;;0.70;0.65;;;;;31.00;101886.00;;;;5031083;28;20325;-76
2022/07/23 11:58:24;;;;;;;1.00;0.90;;;;;30.90;101880.00;;;;5035015;28;20228;-75
2022/07/23 12:00:52;;;;;;;0.80;0.70;;;;;31.00;101885.00;;;;5030869;28;20243;-76
2022/07/23 12:03:19;;;;;;;1.02;0.70;;;;;31.00;101881.00;;;;5037420;28;20662;-76
2022/07/23 12:05:47;;;;;;;2.22;0.73;;;;;31.00;101887.00;;;;5041663;28;20245;-78
2022/07/23 12:08:14;;;;;;;0.85;0.82;;;;;31.00;101878.00;;;;5033450;28;20212;-77
2022/07/23 12:10:43;;;;;;;1.98;1.00;;;;;31.00;101871.00;;;;5036179;28;20224;-77
2022/07/23 12:13:13;;;;;;;1.13;0.90;;;;;31.00;101864.00;;;;5044098;28;20196;-78
2022/07/23 12:15:43;;;;;;;1.40;1.00;;;;;31.00;101872.00;;;;5036954;28;20204;-75
2022/07/23 12:18:14;;;;;;;1.92;0.93;;;;;31.00;101873.00;;;;5031715;28;20200;-76
2022/07/23 12:20:44;;;;;;;1.70;0.90;;;;;31.00;101872.00;;;;5034195;28;20663;-76